<?xml version='1.0' encoding='UTF-8'?><gpx version="1.1" creator="JPX - https://github.com/jenetics/jpx" xmlns="http://www.topografix.com/GPX/1/1"><trk><trkseg><trkpt lat="44.4147167" lon="10.9910867"><ele>411.0</ele><time>2026-04-12T08:04:02.727Z</time></trkpt><trkpt lat="44.41479" lon="10.9909717"><ele>411.0</ele><time>2026-04-12T08:04:04.728Z</time></trkpt><trkpt lat="44.414865" lon="10.9908583"><ele>411.0</ele><time>2026-04-12T08:04:06.727Z</time></trkpt><trkpt lat="44.4149217" lon="10.9907717"><ele>411.0</ele><time>2026-04-12T08:04:08.727Z</time></trkpt><trkpt lat="44.4149783" lon="10.9907283"><ele>411.0</ele><time>2026-04-12T08:04:11.729Z</time></trkpt><trkpt lat="44.4149633" lon="10.99082"><ele>411.0</ele><time>2026-04-12T08:04:18.729Z</time></trkpt><trkpt lat="44.415025" lon="10.990935"><ele>411.0</ele><time>2026-04-12T08:05:28.728Z</time></trkpt><trkpt lat="44.415095" lon="10.99102"><ele>411.0</ele><time>2026-04-12T08:05:30.728Z</time></trkpt><trkpt lat="44.4151783" lon="10.9910833"><ele>411.0</ele><time>2026-04-12T08:05:32.728Z</time></trkpt><trkpt lat="44.4152733" lon="10.99113"><ele>411.0</ele><time>2026-04-12T08:05:34.73Z</time></trkpt><trkpt lat="44.41538" lon="10.9911583"><ele>411.0</ele><time>2026-04-12T08:05:36.729Z</time></trkpt><trkpt lat="44.4154933" lon="10.9911767"><ele>407.20000000000005</ele><time>2026-04-12T08:05:38.727Z</time></trkpt><trkpt lat="44.415605" lon="10.9911867"><ele>403.40000000000003</ele><time>2026-04-12T08:05:40.729Z</time></trkpt><trkpt lat="44.4157167" lon="10.9912133"><ele>399.6</ele><time>2026-04-12T08:05:42.727Z</time></trkpt><trkpt lat="44.41583" lon="10.9912417"><ele>395.8</ele><time>2026-04-12T08:05:44.728Z</time></trkpt><trkpt lat="44.4159317" lon="10.9912433"><ele>392.0</ele><time>2026-04-12T08:05:46.728Z</time></trkpt><trkpt lat="44.4160417" lon="10.9912267"><ele>391.99999999999994</ele><time>2026-04-12T08:05:48.728Z</time></trkpt><trkpt lat="44.4161067" lon="10.99122"><ele>392.0</ele><time>2026-04-12T08:05:49.729Z</time></trkpt><trkpt lat="44.4161733" lon="10.9912"><ele>392.0</ele><time>2026-04-12T08:05:50.728Z</time></trkpt><trkpt lat="44.4162417" lon="10.99118"><ele>392.0</ele><time>2026-04-12T08:05:51.728Z</time></trkpt><trkpt lat="44.4163083" lon="10.9911583"><ele>391.99999999999994</ele><time>2026-04-12T08:05:52.728Z</time></trkpt><trkpt lat="44.4163767" lon="10.99111"><ele>392.0</ele><time>2026-04-12T08:05:53.727Z</time></trkpt><trkpt lat="44.4164867" lon="10.991045"><ele>388.66666666666663</ele><time>2026-04-12T08:05:55.729Z</time></trkpt><trkpt lat="44.4165483" lon="10.9910117"><ele>385.3333333333333</ele><time>2026-04-12T08:05:56.727Z</time></trkpt><trkpt lat="44.41661" lon="10.9909883"><ele>382.0</ele><time>2026-04-12T08:05:57.728Z</time></trkpt><trkpt lat="44.41672" lon="10.9909667"><ele>378.66666666666663</ele><time>2026-04-12T08:05:59.728Z</time></trkpt><trkpt lat="44.416845" lon="10.9909183"><ele>375.3333333333333</ele><time>2026-04-12T08:06:01.728Z</time></trkpt><trkpt lat="44.4169133" lon="10.990895"><ele>372.0</ele><time>2026-04-12T08:06:02.728Z</time></trkpt><trkpt lat="44.417045" lon="10.9909033"><ele>372.0</ele><time>2026-04-12T08:06:04.728Z</time></trkpt><trkpt lat="44.41712" lon="10.990915"><ele>372.0</ele><time>2026-04-12T08:06:05.727Z</time></trkpt><trkpt lat="44.417235" lon="10.9909567"><ele>372.0</ele><time>2026-04-12T08:06:07.728Z</time></trkpt><trkpt lat="44.4173167" lon="10.991005"><ele>372.0</ele><time>2026-04-12T08:06:09.729Z</time></trkpt><trkpt lat="44.417385" lon="10.991045"><ele>372.0</ele><time>2026-04-12T08:06:12.728Z</time></trkpt><trkpt lat="44.41745" lon="10.991065"><ele>372.0</ele><time>2026-04-12T08:06:16.734Z</time></trkpt><trkpt lat="44.4175117" lon="10.9911033"><ele>370.7142857142857</ele><time>2026-04-12T08:06:21.728Z</time></trkpt><trkpt lat="44.41758" lon="10.9911233"><ele>369.42857142857144</ele><time>2026-04-12T08:06:24.728Z</time></trkpt><trkpt lat="44.4176467" lon="10.9911333"><ele>368.1428571428571</ele><time>2026-04-12T08:06:27.728Z</time></trkpt><trkpt lat="44.4177217" lon="10.9911667"><ele>366.8571428571429</ele><time>2026-04-12T08:06:32.727Z</time></trkpt><trkpt lat="44.4177983" lon="10.9912283"><ele>365.57142857142856</ele><time>2026-04-12T08:06:35.727Z</time></trkpt><trkpt lat="44.4178517" lon="10.9912933"><ele>364.2857142857143</ele><time>2026-04-12T08:06:37.728Z</time></trkpt><trkpt lat="44.417905" lon="10.9913617"><ele>363.0</ele><time>2026-04-12T08:06:39.728Z</time></trkpt><trkpt lat="44.4179683" lon="10.9914333"><ele>361.5</ele><time>2026-04-12T08:06:41.728Z</time></trkpt><trkpt lat="44.4180667" lon="10.9915133"><ele>360.0</ele><time>2026-04-12T08:08:00.73Z</time></trkpt><trkpt lat="44.418125" lon="10.9915567"><ele>358.5</ele><time>2026-04-12T08:08:02.729Z</time></trkpt><trkpt lat="44.4181817" lon="10.9916133"><ele>357.0</ele><time>2026-04-12T08:08:04.73Z</time></trkpt><trkpt lat="44.4182383" lon="10.9916583"><ele>355.5</ele><time>2026-04-12T08:08:06.729Z</time></trkpt><trkpt lat="44.4183033" lon="10.9917317"><ele>354.0</ele><time>2026-04-12T08:08:09.73Z</time></trkpt><trkpt lat="44.41837" lon="10.991765"><ele>351.8333333333333</ele><time>2026-04-12T08:08:12.73Z</time></trkpt><trkpt lat="44.41843" lon="10.9918033"><ele>349.6666666666667</ele><time>2026-04-12T08:08:14.73Z</time></trkpt><trkpt lat="44.4184983" lon="10.9918417"><ele>347.5</ele><time>2026-04-12T08:08:16.73Z</time></trkpt><trkpt lat="44.4185733" lon="10.991895"><ele>345.33333333333337</ele><time>2026-04-12T08:08:19.73Z</time></trkpt><trkpt lat="44.4186383" lon="10.9919317"><ele>343.1666666666667</ele><time>2026-04-12T08:08:23.729Z</time></trkpt><trkpt lat="44.4187067" lon="10.991985"><ele>341.0</ele><time>2026-04-12T08:08:26.729Z</time></trkpt><trkpt lat="44.41878" lon="10.99204"><ele>339.83333333333337</ele><time>2026-04-12T08:08:28.73Z</time></trkpt><trkpt lat="44.4188567" lon="10.9920867"><ele>338.6666666666667</ele><time>2026-04-12T08:08:31.729Z</time></trkpt><trkpt lat="44.41892" lon="10.992125"><ele>337.5</ele><time>2026-04-12T08:08:33.73Z</time></trkpt><trkpt lat="44.419" lon="10.992165"><ele>336.3333333333333</ele><time>2026-04-12T08:08:36.729Z</time></trkpt><trkpt lat="44.4190617" lon="10.992235"><ele>335.16666666666663</ele><time>2026-04-12T08:08:39.73Z</time></trkpt><trkpt lat="44.4190917" lon="10.9923367"><ele>334.0</ele><time>2026-04-12T08:08:42.73Z</time></trkpt><trkpt lat="44.4191367" lon="10.992425"><ele>331.0</ele><time>2026-04-12T08:08:45.73Z</time></trkpt><trkpt lat="44.4191833" lon="10.9925083"><ele>328.0</ele><time>2026-04-12T08:08:47.729Z</time></trkpt><trkpt lat="44.4192333" lon="10.99259"><ele>325.0</ele><time>2026-04-12T08:08:49.73Z</time></trkpt><trkpt lat="44.4192967" lon="10.992685"><ele>322.0</ele><time>2026-04-12T08:08:51.729Z</time></trkpt><trkpt lat="44.41938" lon="10.9927867"><ele>319.0</ele><time>2026-04-12T08:08:53.729Z</time></trkpt><trkpt lat="44.419475" lon="10.992875"><ele>319.0</ele><time>2026-04-12T08:08:55.73Z</time></trkpt><trkpt lat="44.4195617" lon="10.992935"><ele>319.0</ele><time>2026-04-12T08:08:57.729Z</time></trkpt><trkpt lat="44.4196483" lon="10.9929967"><ele>319.0</ele><time>2026-04-12T08:08:59.729Z</time></trkpt><trkpt lat="44.419785" lon="10.9930783"><ele>319.0</ele><time>2026-04-12T08:10:49.728Z</time></trkpt><trkpt lat="44.4198467" lon="10.9931067"><ele>319.0</ele><time>2026-04-12T08:10:50.728Z</time></trkpt><trkpt lat="44.41991" lon="10.9931267"><ele>319.0</ele><time>2026-04-12T08:10:51.729Z</time></trkpt><trkpt lat="44.41998" lon="10.9931333"><ele>319.0</ele><time>2026-04-12T08:10:52.73Z</time></trkpt><trkpt lat="44.42008" lon="10.9931433"><ele>319.0</ele><time>2026-04-12T08:10:54.729Z</time></trkpt><trkpt lat="44.4201617" lon="10.993175"><ele>319.0</ele><time>2026-04-12T08:10:56.729Z</time></trkpt><trkpt lat="44.4202333" lon="10.9932183"><ele>319.0</ele><time>2026-04-12T08:10:58.733Z</time></trkpt><trkpt lat="44.420315" lon="10.9932617"><ele>319.0</ele><time>2026-04-12T08:11:00.729Z</time></trkpt><trkpt lat="44.4203967" lon="10.9932883"><ele>318.66666666666663</ele><time>2026-04-12T08:11:02.729Z</time></trkpt><trkpt lat="44.4205" lon="10.9933083"><ele>318.3333333333333</ele><time>2026-04-12T08:11:04.73Z</time></trkpt><trkpt lat="44.4205617" lon="10.9933333"><ele>318.0</ele><time>2026-04-12T08:11:05.728Z</time></trkpt><trkpt lat="44.42067" lon="10.9934133"><ele>317.6666666666667</ele><time>2026-04-12T08:11:07.729Z</time></trkpt><trkpt lat="44.4207233" lon="10.99347"><ele>317.33333333333337</ele><time>2026-04-12T08:11:08.729Z</time></trkpt><trkpt lat="44.420775" lon="10.99353"><ele>317.0</ele><time>2026-04-12T08:11:09.729Z</time></trkpt><trkpt lat="44.4208617" lon="10.9936433"><ele>315.0</ele><time>2026-04-12T08:11:11.729Z</time></trkpt><trkpt lat="44.4209267" lon="10.9937483"><ele>313.0</ele><time>2026-04-12T08:11:13.73Z</time></trkpt><trkpt lat="44.420985" lon="10.9938433"><ele>311.0</ele><time>2026-04-12T08:11:15.729Z</time></trkpt><trkpt lat="44.4210683" lon="10.9939217"><ele>309.0</ele><time>2026-04-12T08:11:17.728Z</time></trkpt><trkpt lat="44.4211383" lon="10.9939633"><ele>307.0</ele><time>2026-04-12T08:11:19.729Z</time></trkpt><trkpt lat="44.4212233" lon="10.9939917"><ele>307.0</ele><time>2026-04-12T08:11:21.729Z</time></trkpt><trkpt lat="44.421285" lon="10.9940133"><ele>307.0</ele><time>2026-04-12T08:11:23.729Z</time></trkpt><trkpt lat="44.4213667" lon="10.9940467"><ele>307.0</ele><time>2026-04-12T08:11:26.729Z</time></trkpt><trkpt lat="44.421445" lon="10.9940683"><ele>307.0</ele><time>2026-04-12T08:11:29.729Z</time></trkpt><trkpt lat="44.4215367" lon="10.9941317"><ele>307.0</ele><time>2026-04-12T08:11:32.729Z</time></trkpt><trkpt lat="44.4216233" lon="10.9942"><ele>307.0</ele><time>2026-04-12T08:11:34.73Z</time></trkpt><trkpt lat="44.4217233" lon="10.9942717"><ele>303.0</ele><time>2026-04-12T08:11:36.729Z</time></trkpt><trkpt lat="44.421825" lon="10.99434"><ele>299.0</ele><time>2026-04-12T08:11:38.73Z</time></trkpt><trkpt lat="44.4219433" lon="10.9944317"><ele>295.0</ele><time>2026-04-12T08:11:40.729Z</time></trkpt><trkpt lat="44.4220067" lon="10.9944783"><ele>291.0</ele><time>2026-04-12T08:11:41.729Z</time></trkpt><trkpt lat="44.42207" lon="10.9945317"><ele>287.0</ele><time>2026-04-12T08:11:42.728Z</time></trkpt><trkpt lat="44.4221317" lon="10.9945867"><ele>285.0</ele><time>2026-04-12T08:11:43.728Z</time></trkpt><trkpt lat="44.4221933" lon="10.994645"><ele>283.0</ele><time>2026-04-12T08:11:44.729Z</time></trkpt><trkpt lat="44.42225" lon="10.9946933"><ele>281.0</ele><time>2026-04-12T08:11:45.728Z</time></trkpt><trkpt lat="44.422335" lon="10.99475"><ele>279.0</ele><time>2026-04-12T08:11:47.728Z</time></trkpt><trkpt lat="44.4223717" lon="10.9948667"><ele>277.0</ele><time>2026-04-12T08:21:31.727Z</time></trkpt><trkpt lat="44.4223933" lon="10.9950383"><ele>277.0</ele><time>2026-04-12T08:21:33.728Z</time></trkpt><trkpt lat="44.4223983" lon="10.9951533"><ele>277.0</ele><time>2026-04-12T08:21:34.728Z</time></trkpt><trkpt lat="44.4223933" lon="10.9952733"><ele>277.0</ele><time>2026-04-12T08:21:35.727Z</time></trkpt><trkpt lat="44.422385" lon="10.9953883"><ele>277.0</ele><time>2026-04-12T08:21:36.727Z</time></trkpt><trkpt lat="44.422375" lon="10.9954883"><ele>277.0</ele><time>2026-04-12T08:21:37.727Z</time></trkpt><trkpt lat="44.4223633" lon="10.995585"><ele>277.0</ele><time>2026-04-12T08:21:38.726Z</time></trkpt><trkpt lat="44.4223583" lon="10.9956783"><ele>276.6</ele><time>2026-04-12T08:21:39.728Z</time></trkpt><trkpt lat="44.4223433" lon="10.99585"><ele>276.2</ele><time>2026-04-12T08:21:41.727Z</time></trkpt><trkpt lat="44.4223283" lon="10.995995"><ele>275.8</ele><time>2026-04-12T08:21:43.727Z</time></trkpt><trkpt lat="44.4223183" lon="10.9961167"><ele>275.4</ele><time>2026-04-12T08:21:45.727Z</time></trkpt><trkpt lat="44.4223183" lon="10.9962267"><ele>275.0</ele><time>2026-04-12T08:21:47.727Z</time></trkpt><trkpt lat="44.42231" lon="10.9963417"><ele>275.0</ele><time>2026-04-12T08:21:49.727Z</time></trkpt><trkpt lat="44.4223183" lon="10.9964667"><ele>275.0</ele><time>2026-04-12T08:21:51.728Z</time></trkpt><trkpt lat="44.4223233" lon="10.996605"><ele>275.0</ele><time>2026-04-12T08:21:53.727Z</time></trkpt><trkpt lat="44.422315" lon="10.996785"><ele>275.0</ele><time>2026-04-12T08:21:55.727Z</time></trkpt><trkpt lat="44.4223083" lon="10.996875"><ele>275.0</ele><time>2026-04-12T08:21:56.727Z</time></trkpt><trkpt lat="44.4223033" lon="10.9969667"><ele>275.0</ele><time>2026-04-12T08:21:57.726Z</time></trkpt><trkpt lat="44.4222933" lon="10.9971267"><ele>274.5</ele><time>2026-04-12T08:21:59.727Z</time></trkpt><trkpt lat="44.4222933" lon="10.997275"><ele>274.0</ele><time>2026-04-12T08:22:01.728Z</time></trkpt><trkpt lat="44.4222817" lon="10.9973767"><ele>273.5</ele><time>2026-04-12T08:22:03.728Z</time></trkpt><trkpt lat="44.422265" lon="10.9974733"><ele>273.0</ele><time>2026-04-12T08:22:06.727Z</time></trkpt><trkpt lat="44.4222817" lon="10.9975983"><ele>272.5</ele><time>2026-04-12T08:22:45.728Z</time></trkpt><trkpt lat="44.42224" lon="10.997675"><ele>272.0</ele><time>2026-04-12T08:22:49.728Z</time></trkpt><trkpt lat="44.4221733" lon="10.9976333"><ele>273.8</ele><time>2026-04-12T08:22:52.728Z</time></trkpt><trkpt lat="44.4221" lon="10.997555"><ele>275.6</ele><time>2026-04-12T08:23:06.728Z</time></trkpt><trkpt lat="44.42205" lon="10.9974867"><ele>277.40000000000003</ele><time>2026-04-12T08:23:07.727Z</time></trkpt><trkpt lat="44.421985" lon="10.997385"><ele>279.2</ele><time>2026-04-12T08:23:08.727Z</time></trkpt><trkpt lat="44.4219183" lon="10.997255"><ele>281.0</ele><time>2026-04-12T08:23:09.728Z</time></trkpt><trkpt lat="44.42187" lon="10.99715"><ele>281.0</ele><time>2026-04-12T08:23:10.728Z</time></trkpt><trkpt lat="44.4218233" lon="10.9970617"><ele>281.0</ele><time>2026-04-12T08:23:11.727Z</time></trkpt><trkpt lat="44.421775" lon="10.99699"><ele>281.0</ele><time>2026-04-12T08:23:12.728Z</time></trkpt><trkpt lat="44.4217283" lon="10.996925"><ele>281.0</ele><time>2026-04-12T08:23:13.728Z</time></trkpt><trkpt lat="44.42169" lon="10.996805"><ele>281.0</ele><time>2026-04-12T08:23:15.727Z</time></trkpt><trkpt lat="44.4216767" lon="10.9966617"><ele>281.0</ele><time>2026-04-12T08:23:17.727Z</time></trkpt><trkpt lat="44.4216683" lon="10.996525"><ele>281.0</ele><time>2026-04-12T08:23:19.728Z</time></trkpt><trkpt lat="44.4216583" lon="10.99636"><ele>281.0</ele><time>2026-04-12T08:23:21.728Z</time></trkpt><trkpt lat="44.4216533" lon="10.9962717"><ele>281.0</ele><time>2026-04-12T08:23:22.728Z</time></trkpt><trkpt lat="44.4216483" lon="10.9961833"><ele>281.0</ele><time>2026-04-12T08:23:23.726Z</time></trkpt><trkpt lat="44.421635" lon="10.9960317"><ele>281.0</ele><time>2026-04-12T08:23:25.728Z</time></trkpt><trkpt lat="44.4215583" lon="10.995935"><ele>282.0</ele><time>2026-04-12T08:23:27.727Z</time></trkpt><trkpt lat="44.42148" lon="10.99583"><ele>283.0</ele><time>2026-04-12T08:23:29.727Z</time></trkpt><trkpt lat="44.4214017" lon="10.9957167"><ele>284.0</ele><time>2026-04-12T08:23:31.727Z</time></trkpt><trkpt lat="44.421305" lon="10.9956333"><ele>285.0</ele><time>2026-04-12T08:23:33.728Z</time></trkpt><trkpt lat="44.42119" lon="10.99558"><ele>286.2</ele><time>2026-04-12T08:23:35.727Z</time></trkpt><trkpt lat="44.4210917" lon="10.995525"><ele>287.4</ele><time>2026-04-12T08:23:37.727Z</time></trkpt><trkpt lat="44.42102" lon="10.9954283"><ele>288.6</ele><time>2026-04-12T08:23:39.727Z</time></trkpt><trkpt lat="44.4209467" lon="10.9952917"><ele>289.8</ele><time>2026-04-12T08:23:41.728Z</time></trkpt><trkpt lat="44.4209117" lon="10.9952133"><ele>291.0</ele><time>2026-04-12T08:23:42.727Z</time></trkpt><trkpt lat="44.4208767" lon="10.9951267"><ele>292.0</ele><time>2026-04-12T08:23:43.728Z</time></trkpt><trkpt lat="44.42082" lon="10.99497"><ele>293.0</ele><time>2026-04-12T08:23:45.732Z</time></trkpt><trkpt lat="44.4207717" lon="10.9948617"><ele>294.0</ele><time>2026-04-12T08:23:47.727Z</time></trkpt><trkpt lat="44.4207033" lon="10.9947767"><ele>295.0</ele><time>2026-04-12T08:23:49.728Z</time></trkpt><trkpt lat="44.4205833" lon="10.9947017"><ele>296.0</ele><time>2026-04-12T08:23:51.729Z</time></trkpt><trkpt lat="44.4205133" lon="10.9946633"><ele>297.0</ele><time>2026-04-12T08:23:52.729Z</time></trkpt><trkpt lat="44.420435" lon="10.9946283"><ele>298.0</ele><time>2026-04-12T08:23:53.728Z</time></trkpt><trkpt lat="44.420355" lon="10.9945933"><ele>299.0</ele><time>2026-04-12T08:23:54.728Z</time></trkpt><trkpt lat="44.4202817" lon="10.9945583"><ele>300.0</ele><time>2026-04-12T08:23:55.728Z</time></trkpt><trkpt lat="44.4202183" lon="10.9945317"><ele>301.0</ele><time>2026-04-12T08:23:56.728Z</time></trkpt><trkpt lat="44.420105" lon="10.994525"><ele>302.0</ele><time>2026-04-12T08:23:58.728Z</time></trkpt><trkpt lat="44.42" lon="10.994565"><ele>302.0</ele><time>2026-04-12T08:24:00.727Z</time></trkpt><trkpt lat="44.4198917" lon="10.9945367"><ele>302.0</ele><time>2026-04-12T08:24:02.728Z</time></trkpt><trkpt lat="44.4197983" lon="10.9944433"><ele>302.0</ele><time>2026-04-12T08:24:04.728Z</time></trkpt><trkpt lat="44.41974" lon="10.9943183"><ele>302.0</ele><time>2026-04-12T08:24:06.728Z</time></trkpt><trkpt lat="44.419695" lon="10.9942167"><ele>302.0</ele><time>2026-04-12T08:24:08.728Z</time></trkpt><trkpt lat="44.4196233" lon="10.9941283"><ele>303.5714285714286</ele><time>2026-04-12T08:24:10.73Z</time></trkpt><trkpt lat="44.4195633" lon="10.9940783"><ele>305.14285714285717</ele><time>2026-04-12T08:24:11.728Z</time></trkpt><trkpt lat="44.4194983" lon="10.9940167"><ele>306.7142857142857</ele><time>2026-04-12T08:24:12.728Z</time></trkpt><trkpt lat="44.419435" lon="10.9939567"><ele>308.28571428571433</ele><time>2026-04-12T08:24:13.728Z</time></trkpt><trkpt lat="44.4193783" lon="10.9938983"><ele>309.8571428571429</ele><time>2026-04-12T08:24:14.728Z</time></trkpt><trkpt lat="44.4193267" lon="10.9938317"><ele>311.42857142857144</ele><time>2026-04-12T08:24:15.728Z</time></trkpt><trkpt lat="44.419275" lon="10.9937667"><ele>313.0</ele><time>2026-04-12T08:24:16.729Z</time></trkpt><trkpt lat="44.4191617" lon="10.9936783"><ele>313.0</ele><time>2026-04-12T08:24:18.728Z</time></trkpt><trkpt lat="44.4190667" lon="10.99361"><ele>313.0</ele><time>2026-04-12T08:24:20.728Z</time></trkpt><trkpt lat="44.4189917" lon="10.993525"><ele>313.0</ele><time>2026-04-12T08:24:22.728Z</time></trkpt><trkpt lat="44.41891" lon="10.993465"><ele>313.0</ele><time>2026-04-12T08:24:41.731Z</time></trkpt><trkpt lat="44.4189633" lon="10.9934167"><ele>313.0</ele><time>2026-04-12T08:25:28.728Z</time></trkpt><trkpt lat="44.4188967" lon="10.9933833"><ele>313.0</ele><time>2026-04-12T08:25:31.728Z</time></trkpt><trkpt lat="44.4188667" lon="10.9935"><ele>313.0</ele><time>2026-04-12T08:28:09.729Z</time></trkpt><trkpt lat="44.418875" lon="10.9936333"><ele>313.0</ele><time>2026-04-12T08:28:11.729Z</time></trkpt><trkpt lat="44.4188833" lon="10.9937483"><ele>313.0</ele><time>2026-04-12T08:28:17.727Z</time></trkpt><trkpt lat="44.4188683" lon="10.9938883"><ele>313.0</ele><time>2026-04-12T08:30:41.728Z</time></trkpt><trkpt lat="44.4187767" lon="10.993935"><ele>313.0</ele><time>2026-04-12T08:30:44.728Z</time></trkpt><trkpt lat="44.4186817" lon="10.9939417"><ele>314.0</ele><time>2026-04-12T08:30:46.728Z</time></trkpt><trkpt lat="44.4186083" lon="10.9939167"><ele>315.0</ele><time>2026-04-12T08:30:48.728Z</time></trkpt><trkpt lat="44.4185417" lon="10.9938733"><ele>316.0</ele><time>2026-04-12T08:30:50.729Z</time></trkpt><trkpt lat="44.418465" lon="10.99384"><ele>317.0</ele><time>2026-04-12T08:30:52.728Z</time></trkpt><trkpt lat="44.4183717" lon="10.9937983"><ele>318.0</ele><time>2026-04-12T08:30:54.728Z</time></trkpt><trkpt lat="44.4182667" lon="10.99374"><ele>319.0</ele><time>2026-04-12T08:30:56.728Z</time></trkpt><trkpt lat="44.4181667" lon="10.99367"><ele>319.0</ele><time>2026-04-12T08:30:58.727Z</time></trkpt><trkpt lat="44.41808" lon="10.9936033"><ele>319.0</ele><time>2026-04-12T08:31:00.728Z</time></trkpt><trkpt lat="44.4179867" lon="10.9935283"><ele>319.0</ele><time>2026-04-12T08:31:02.729Z</time></trkpt><trkpt lat="44.41788" lon="10.9934617"><ele>319.0</ele><time>2026-04-12T08:31:04.728Z</time></trkpt><trkpt lat="44.417755" lon="10.9934133"><ele>321.2</ele><time>2026-04-12T08:31:06.728Z</time></trkpt><trkpt lat="44.4176867" lon="10.9934"><ele>323.4</ele><time>2026-04-12T08:31:07.728Z</time></trkpt><trkpt lat="44.4175717" lon="10.9933967"><ele>325.6</ele><time>2026-04-12T08:31:09.728Z</time></trkpt><trkpt lat="44.4174617" lon="10.99341"><ele>327.8</ele><time>2026-04-12T08:31:11.728Z</time></trkpt><trkpt lat="44.4173533" lon="10.993445"><ele>330.0</ele><time>2026-04-12T08:31:13.728Z</time></trkpt><trkpt lat="44.417285" lon="10.993545"><ele>330.0</ele><time>2026-04-12T08:31:15.728Z</time></trkpt><trkpt lat="44.4172283" lon="10.993665"><ele>330.0</ele><time>2026-04-12T08:31:17.728Z</time></trkpt><trkpt lat="44.4171617" lon="10.9937783"><ele>330.0</ele><time>2026-04-12T08:31:19.728Z</time></trkpt><trkpt lat="44.4170983" lon="10.9938367"><ele>330.0</ele><time>2026-04-12T08:31:21.729Z</time></trkpt><trkpt lat="44.4169917" lon="10.993885"><ele>330.0</ele><time>2026-04-12T08:31:23.731Z</time></trkpt><trkpt lat="44.4169217" lon="10.9938883"><ele>332.5</ele><time>2026-04-12T08:31:24.728Z</time></trkpt><trkpt lat="44.416845" lon="10.99388"><ele>335.0</ele><time>2026-04-12T08:31:25.729Z</time></trkpt><trkpt lat="44.4167733" lon="10.993875"><ele>337.5</ele><time>2026-04-12T08:31:26.729Z</time></trkpt><trkpt lat="44.416695" lon="10.9938817"><ele>340.0</ele><time>2026-04-12T08:31:27.729Z</time></trkpt><trkpt lat="44.41661" lon="10.993895"><ele>342.5</ele><time>2026-04-12T08:31:28.728Z</time></trkpt><trkpt lat="44.4165283" lon="10.9939017"><ele>345.0</ele><time>2026-04-12T08:31:29.728Z</time></trkpt><trkpt lat="44.41646" lon="10.993915"><ele>345.0</ele><time>2026-04-12T08:31:30.728Z</time></trkpt><trkpt lat="44.4163883" lon="10.9939333"><ele>345.0</ele><time>2026-04-12T08:31:31.728Z</time></trkpt><trkpt lat="44.4163167" lon="10.9939583"><ele>345.0</ele><time>2026-04-12T08:31:32.729Z</time></trkpt><trkpt lat="44.4162067" lon="10.9939917"><ele>345.0</ele><time>2026-04-12T08:31:34.729Z</time></trkpt><trkpt lat="44.4161417" lon="10.9940067"><ele>345.0</ele><time>2026-04-12T08:31:36.728Z</time></trkpt><trkpt lat="44.4160667" lon="10.994005"><ele>345.0</ele><time>2026-04-12T08:31:52.729Z</time></trkpt><trkpt lat="44.4159733" lon="10.994005"><ele>346.8333333333333</ele><time>2026-04-12T08:31:55.729Z</time></trkpt><trkpt lat="44.415895" lon="10.993985"><ele>348.6666666666667</ele><time>2026-04-12T08:31:58.73Z</time></trkpt><trkpt lat="44.4158367" lon="10.9939067"><ele>350.5</ele><time>2026-04-12T08:33:38.728Z</time></trkpt><trkpt lat="44.41578" lon="10.9938333"><ele>352.33333333333337</ele><time>2026-04-12T08:33:39.728Z</time></trkpt><trkpt lat="44.4157317" lon="10.99377"><ele>354.1666666666667</ele><time>2026-04-12T08:33:40.731Z</time></trkpt><trkpt lat="44.4156833" lon="10.99371"><ele>356.0</ele><time>2026-04-12T08:33:41.728Z</time></trkpt><trkpt lat="44.4156" lon="10.99361"><ele>356.0</ele><time>2026-04-12T08:33:43.729Z</time></trkpt><trkpt lat="44.4155383" lon="10.9935617"><ele>356.0</ele><time>2026-04-12T08:33:46.73Z</time></trkpt><trkpt lat="44.41558" lon="10.9936283"><ele>356.0</ele><time>2026-04-12T08:34:06.728Z</time></trkpt><trkpt lat="44.4156083" lon="10.9937583"><ele>356.0</ele><time>2026-04-12T08:37:19.728Z</time></trkpt><trkpt lat="44.4156767" lon="10.993825"><ele>356.0</ele><time>2026-04-12T08:37:22.729Z</time></trkpt><trkpt lat="44.41574" lon="10.993885"><ele>356.0</ele><time>2026-04-12T08:37:24.729Z</time></trkpt><trkpt lat="44.4158117" lon="10.99396"><ele>356.0</ele><time>2026-04-12T08:37:27.729Z</time></trkpt><trkpt lat="44.4158683" lon="10.9940467"><ele>356.0</ele><time>2026-04-12T08:37:30.729Z</time></trkpt><trkpt lat="44.41594" lon="10.9940533"><ele>356.0</ele><time>2026-04-12T08:37:34.728Z</time></trkpt><trkpt lat="44.4158617" lon="10.9939867"><ele>356.0</ele><time>2026-04-12T08:47:02.728Z</time></trkpt><trkpt lat="44.4158017" lon="10.9939533"><ele>356.0</ele><time>2026-04-12T08:47:05.727Z</time></trkpt><trkpt lat="44.4157383" lon="10.9938833"><ele>356.0</ele><time>2026-04-12T08:47:07.729Z</time></trkpt><trkpt lat="44.41567" lon="10.9938"><ele>356.0</ele><time>2026-04-12T08:47:09.729Z</time></trkpt><trkpt lat="44.4155933" lon="10.9937067"><ele>356.0</ele><time>2026-04-12T08:47:11.728Z</time></trkpt><trkpt lat="44.41552" lon="10.9935883"><ele>356.0</ele><time>2026-04-12T08:47:13.729Z</time></trkpt><trkpt lat="44.415455" lon="10.99345"><ele>356.0</ele><time>2026-04-12T08:47:15.728Z</time></trkpt><trkpt lat="44.4154" lon="10.9933333"><ele>356.0</ele><time>2026-04-12T08:47:17.728Z</time></trkpt><trkpt lat="44.4153633" lon="10.9932417"><ele>360.6666666666667</ele><time>2026-04-12T08:47:19.727Z</time></trkpt><trkpt lat="44.4153017" lon="10.9931833"><ele>365.33333333333337</ele><time>2026-04-12T08:47:22.728Z</time></trkpt><trkpt lat="44.41522" lon="10.993125"><ele>370.0</ele><time>2026-04-12T08:48:18.729Z</time></trkpt><trkpt lat="44.41516" lon="10.9930867"><ele>374.6666666666667</ele><time>2026-04-12T08:48:21.728Z</time></trkpt><trkpt lat="44.4152433" lon="10.9931383"><ele>379.3333333333333</ele><time>2026-04-12T08:52:36.728Z</time></trkpt><trkpt lat="44.4153067" lon="10.9931867"><ele>384.0</ele><time>2026-04-12T08:52:39.729Z</time></trkpt><trkpt lat="44.4153767" lon="10.9931967"><ele>384.0</ele><time>2026-04-12T08:53:05.727Z</time></trkpt><trkpt lat="44.415405" lon="10.9932833"><ele>384.0</ele><time>2026-04-12T08:54:18.728Z</time></trkpt><trkpt lat="44.4154483" lon="10.9933633"><ele>384.0</ele><time>2026-04-12T08:54:20.727Z</time></trkpt><trkpt lat="44.4154917" lon="10.99347"><ele>384.0</ele><time>2026-04-12T08:54:23.727Z</time></trkpt><trkpt lat="44.4155283" lon="10.9935683"><ele>384.0</ele><time>2026-04-12T08:54:28.728Z</time></trkpt><trkpt lat="44.4155833" lon="10.9936633"><ele>384.0</ele><time>2026-04-12T08:54:31.728Z</time></trkpt><trkpt lat="44.4156217" lon="10.99374"><ele>379.3333333333333</ele><time>2026-04-12T08:54:34.728Z</time></trkpt><trkpt lat="44.41567" lon="10.993815"><ele>374.6666666666667</ele><time>2026-04-12T08:54:37.728Z</time></trkpt><trkpt lat="44.4157383" lon="10.99389"><ele>370.0</ele><time>2026-04-12T08:54:39.728Z</time></trkpt><trkpt lat="44.4158017" lon="10.9939567"><ele>365.33333333333337</ele><time>2026-04-12T08:54:41.727Z</time></trkpt><trkpt lat="44.4158733" lon="10.994005"><ele>360.6666666666667</ele><time>2026-04-12T08:54:44.727Z</time></trkpt><trkpt lat="44.415835" lon="10.9939133"><ele>356.0</ele><time>2026-04-12T08:56:10.73Z</time></trkpt><trkpt lat="44.4157717" lon="10.993835"><ele>356.0</ele><time>2026-04-12T08:56:12.729Z</time></trkpt><trkpt lat="44.4156867" lon="10.99374"><ele>356.0</ele><time>2026-04-12T08:56:14.729Z</time></trkpt><trkpt lat="44.4155967" lon="10.9936367"><ele>356.0</ele><time>2026-04-12T08:56:16.73Z</time></trkpt><trkpt lat="44.4155367" lon="10.9935333"><ele>356.0</ele><time>2026-04-12T08:56:18.735Z</time></trkpt><trkpt lat="44.4155117" lon="10.9934417"><ele>356.0</ele><time>2026-04-12T08:56:30.727Z</time></trkpt><trkpt lat="44.4154817" lon="10.993345"><ele>360.6666666666667</ele><time>2026-04-12T08:56:34.73Z</time></trkpt><trkpt lat="44.4154517" lon="10.9932517"><ele>365.33333333333337</ele><time>2026-04-12T08:56:37.728Z</time></trkpt><trkpt lat="44.4154017" lon="10.9931717"><ele>370.0</ele><time>2026-04-12T08:56:40.729Z</time></trkpt><trkpt lat="44.4153433" lon="10.9930817"><ele>374.6666666666667</ele><time>2026-04-12T08:56:43.728Z</time></trkpt><trkpt lat="44.4152917" lon="10.9930067"><ele>379.3333333333333</ele><time>2026-04-12T08:56:46.73Z</time></trkpt><trkpt lat="44.4152233" lon="10.9929733"><ele>384.0</ele><time>2026-04-12T08:56:52.73Z</time></trkpt><trkpt lat="44.415155" lon="10.9929867"><ele>384.0</ele><time>2026-04-12T08:57:14.728Z</time></trkpt><trkpt lat="44.4150783" lon="10.9929717"><ele>384.0</ele><time>2026-04-12T08:57:17.728Z</time></trkpt><trkpt lat="44.415015" lon="10.9929583"><ele>384.0</ele><time>2026-04-12T08:57:19.729Z</time></trkpt><trkpt lat="44.4149283" lon="10.9929383"><ele>384.0</ele><time>2026-04-12T08:57:22.73Z</time></trkpt><trkpt lat="44.4148433" lon="10.99293"><ele>384.0</ele><time>2026-04-12T08:57:24.729Z</time></trkpt><trkpt lat="44.4147383" lon="10.9929183"><ele>384.0</ele><time>2026-04-12T08:57:26.729Z</time></trkpt><trkpt lat="44.4146367" lon="10.9929033"><ele>386.6666666666667</ele><time>2026-04-12T08:57:28.73Z</time></trkpt><trkpt lat="44.414535" lon="10.9928883"><ele>389.33333333333337</ele><time>2026-04-12T08:57:30.729Z</time></trkpt><trkpt lat="44.4144633" lon="10.9928733"><ele>392.0</ele><time>2026-04-12T08:57:32.729Z</time></trkpt><trkpt lat="44.4143933" lon="10.99286"><ele>394.6666666666667</ele><time>2026-04-12T08:57:34.73Z</time></trkpt><trkpt lat="44.4143167" lon="10.9928383"><ele>397.33333333333337</ele><time>2026-04-12T08:57:36.729Z</time></trkpt><trkpt lat="44.4142467" lon="10.9928033"><ele>400.0</ele><time>2026-04-12T08:57:38.729Z</time></trkpt><trkpt lat="44.4141717" lon="10.9927483"><ele>400.00000000000006</ele><time>2026-04-12T08:57:40.729Z</time></trkpt><trkpt lat="44.4140783" lon="10.99271"><ele>400.0</ele><time>2026-04-12T08:57:42.73Z</time></trkpt><trkpt lat="44.4139983" lon="10.9927183"><ele>400.0</ele><time>2026-04-12T08:57:44.729Z</time></trkpt><trkpt lat="44.413925" lon="10.9927417"><ele>400.0</ele><time>2026-04-12T08:57:46.729Z</time></trkpt><trkpt lat="44.4138467" lon="10.9927567"><ele>400.00000000000006</ele><time>2026-04-12T08:57:49.729Z</time></trkpt><trkpt lat="44.41378" lon="10.9927333"><ele>400.0</ele><time>2026-04-12T08:57:52.73Z</time></trkpt><trkpt lat="44.4137133" lon="10.9926783"><ele>402.42857142857144</ele><time>2026-04-12T08:57:55.73Z</time></trkpt><trkpt lat="44.41366" lon="10.992625"><ele>404.8571428571429</ele><time>2026-04-12T08:57:57.73Z</time></trkpt><trkpt lat="44.4136117" lon="10.9925583"><ele>407.28571428571433</ele><time>2026-04-12T08:58:00.729Z</time></trkpt><trkpt lat="44.4136133" lon="10.992465"><ele>409.7142857142857</ele><time>2026-04-12T08:58:02.729Z</time></trkpt><trkpt lat="44.4136133" lon="10.9923633"><ele>412.1428571428571</ele><time>2026-04-12T09:09:24.728Z</time></trkpt><trkpt lat="44.4136883" lon="10.9923717"><ele>414.5714285714286</ele><time>2026-04-12T09:09:27.728Z</time></trkpt><trkpt lat="44.41375" lon="10.992335"><ele>417.0</ele><time>2026-04-12T09:09:29.727Z</time></trkpt><trkpt lat="44.4138033" lon="10.99228"><ele>416.3333333333333</ele><time>2026-04-12T09:09:31.728Z</time></trkpt><trkpt lat="44.4138767" lon="10.9921867"><ele>415.66666666666663</ele><time>2026-04-12T09:09:34.728Z</time></trkpt><trkpt lat="44.4139317" lon="10.99211"><ele>415.0</ele><time>2026-04-12T09:09:36.729Z</time></trkpt><trkpt lat="44.413985" lon="10.9920267"><ele>414.3333333333333</ele><time>2026-04-12T09:09:38.728Z</time></trkpt><trkpt lat="44.4140417" lon="10.9919217"><ele>413.66666666666663</ele><time>2026-04-12T09:09:40.729Z</time></trkpt><trkpt lat="44.4141" lon="10.991815"><ele>413.0</ele><time>2026-04-12T09:09:42.727Z</time></trkpt><trkpt lat="44.414175" lon="10.99169"><ele>416.0</ele><time>2026-04-12T09:09:44.729Z</time></trkpt><trkpt lat="44.41422" lon="10.9916183"><ele>419.0</ele><time>2026-04-12T09:09:45.727Z</time></trkpt><trkpt lat="44.4142867" lon="10.9915383"><ele>421.99999999999994</ele><time>2026-04-12T09:09:46.728Z</time></trkpt><trkpt lat="44.414335" lon="10.99147"><ele>425.0</ele><time>2026-04-12T09:09:47.728Z</time></trkpt><trkpt lat="44.4144217" lon="10.9913617"><ele>428.0</ele><time>2026-04-12T09:09:49.728Z</time></trkpt><trkpt lat="44.414525" lon="10.99125"><ele>427.99999999999994</ele><time>2026-04-12T09:09:51.728Z</time></trkpt><trkpt lat="44.4146217" lon="10.9911583"><ele>428.0</ele><time>2026-04-12T09:09:53.728Z</time></trkpt><trkpt lat="44.414685" lon="10.991095"><ele>428.0</ele><time>2026-04-12T09:09:55.728Z</time></trkpt><trkpt lat="44.41474" lon="10.9910467"><ele>428.0</ele><time>2026-04-12T09:09:58.728Z</time></trkpt><trkpt lat="44.41472" lon="10.990945"><ele>427.99999999999994</ele><time>2026-04-12T09:10:46.727Z</time></trkpt><trkpt lat="44.4146917" lon="10.990865"><ele>428.0</ele><time>2026-04-12T09:10:48.728Z</time></trkpt><trkpt lat="44.4146717" lon="10.9907683"><ele>426.99999999999994</ele><time>2026-04-12T09:10:50.729Z</time></trkpt><trkpt lat="44.4146817" lon="10.9906617"><ele>426.0</ele><time>2026-04-12T09:10:52.73Z</time></trkpt><trkpt lat="44.4146883" lon="10.9905517"><ele>425.0</ele><time>2026-04-12T09:10:54.729Z</time></trkpt><trkpt lat="44.4146367" lon="10.9904367"><ele>424.0</ele><time>2026-04-12T09:10:56.728Z</time></trkpt><trkpt lat="44.414595" lon="10.99037"><ele>422.99999999999994</ele><time>2026-04-12T09:10:57.727Z</time></trkpt><trkpt lat="44.4145433" lon="10.99024"><ele>422.0</ele><time>2026-04-12T09:10:59.728Z</time></trkpt><trkpt lat="44.4145183" lon="10.9901333"><ele>425.16666666666663</ele><time>2026-04-12T09:11:02.727Z</time></trkpt><trkpt lat="44.4144983" lon="10.9900483"><ele>428.3333333333333</ele><time>2026-04-12T09:11:05.728Z</time></trkpt><trkpt lat="44.4145367" lon="10.98996"><ele>431.5</ele><time>2026-04-12T09:11:08.729Z</time></trkpt><trkpt lat="44.4144483" lon="10.9899667"><ele>434.66666666666663</ele><time>2026-04-12T09:11:13.728Z</time></trkpt><trkpt lat="44.414385" lon="10.9900117"><ele>437.8333333333333</ele><time>2026-04-12T09:11:15.728Z</time></trkpt><trkpt lat="44.41431" lon="10.9900317"><ele>441.0</ele><time>2026-04-12T09:11:17.728Z</time></trkpt><trkpt lat="44.4142367" lon="10.9899983"><ele>442.6666666666667</ele><time>2026-04-12T09:11:19.728Z</time></trkpt><trkpt lat="44.4141717" lon="10.9899717"><ele>444.33333333333337</ele><time>2026-04-12T09:11:21.728Z</time></trkpt><trkpt lat="44.41409" lon="10.989935"><ele>446.0</ele><time>2026-04-12T09:11:24.727Z</time></trkpt><trkpt lat="44.4140017" lon="10.9898633"><ele>447.6666666666667</ele><time>2026-04-12T09:11:47.73Z</time></trkpt><trkpt lat="44.41388" lon="10.9898167"><ele>449.33333333333337</ele><time>2026-04-12T09:12:26.727Z</time></trkpt><trkpt lat="44.4138167" lon="10.9898067"><ele>451.0</ele><time>2026-04-12T09:12:29.728Z</time></trkpt><trkpt lat="44.413755" lon="10.98978"><ele>453.1666666666667</ele><time>2026-04-12T09:12:31.728Z</time></trkpt><trkpt lat="44.4137" lon="10.9897333"><ele>455.33333333333337</ele><time>2026-04-12T09:12:33.728Z</time></trkpt><trkpt lat="44.4136117" lon="10.9897067"><ele>457.5</ele><time>2026-04-12T09:37:16.728Z</time></trkpt><trkpt lat="44.4135317" lon="10.9897017"><ele>459.66666666666663</ele><time>2026-04-12T09:37:18.728Z</time></trkpt><trkpt lat="44.4134517" lon="10.9897133"><ele>461.8333333333333</ele><time>2026-04-12T09:37:20.731Z</time></trkpt><trkpt lat="44.4133733" lon="10.9897233"><ele>464.0</ele><time>2026-04-12T09:37:22.729Z</time></trkpt><trkpt lat="44.41331" lon="10.9897333"><ele>463.99999999999994</ele><time>2026-04-12T09:37:24.727Z</time></trkpt><trkpt lat="44.4132283" lon="10.9897867"><ele>464.0</ele><time>2026-04-12T09:37:26.729Z</time></trkpt><trkpt lat="44.4131317" lon="10.9898833"><ele>464.0</ele><time>2026-04-12T09:37:28.729Z</time></trkpt><trkpt lat="44.4130733" lon="10.9899317"><ele>464.0</ele><time>2026-04-12T09:37:29.728Z</time></trkpt><trkpt lat="44.4130133" lon="10.9899783"><ele>463.99999999999994</ele><time>2026-04-12T09:37:30.728Z</time></trkpt><trkpt lat="44.4129517" lon="10.990025"><ele>464.0</ele><time>2026-04-12T09:37:31.729Z</time></trkpt><trkpt lat="44.412895" lon="10.9900767"><ele>465.2</ele><time>2026-04-12T09:37:32.728Z</time></trkpt><trkpt lat="44.4127983" lon="10.99019"><ele>466.4</ele><time>2026-04-12T09:37:34.73Z</time></trkpt><trkpt lat="44.41275" lon="10.99025"><ele>467.6</ele><time>2026-04-12T09:37:35.729Z</time></trkpt><trkpt lat="44.4126767" lon="10.99037"><ele>468.8</ele><time>2026-04-12T09:37:37.73Z</time></trkpt><trkpt lat="44.4125867" lon="10.9904917"><ele>470.0</ele><time>2026-04-12T09:37:39.729Z</time></trkpt><trkpt lat="44.4125367" lon="10.9905517"><ele>470.0</ele><time>2026-04-12T09:37:40.729Z</time></trkpt><trkpt lat="44.41248" lon="10.9906"><ele>470.0</ele><time>2026-04-12T09:37:41.728Z</time></trkpt><trkpt lat="44.412415" lon="10.990625"><ele>470.0</ele><time>2026-04-12T09:37:42.729Z</time></trkpt><trkpt lat="44.412295" lon="10.9906567"><ele>470.0</ele><time>2026-04-12T09:37:44.729Z</time></trkpt><trkpt lat="44.4121933" lon="10.9906633"><ele>470.0</ele><time>2026-04-12T09:37:46.729Z</time></trkpt><trkpt lat="44.412105" lon="10.9906267"><ele>471.99999999999994</ele><time>2026-04-12T09:37:48.729Z</time></trkpt><trkpt lat="44.4120183" lon="10.99058"><ele>474.0</ele><time>2026-04-12T09:37:50.727Z</time></trkpt><trkpt lat="44.41195" lon="10.9905533"><ele>476.0</ele><time>2026-04-12T09:37:52.728Z</time></trkpt><trkpt lat="44.4118517" lon="10.9905483"><ele>478.0</ele><time>2026-04-12T09:37:55.728Z</time></trkpt><trkpt lat="44.4117883" lon="10.9905517"><ele>479.99999999999994</ele><time>2026-04-12T09:37:57.729Z</time></trkpt><trkpt lat="44.4117083" lon="10.9905683"><ele>482.0</ele><time>2026-04-12T09:38:31.728Z</time></trkpt><trkpt lat="44.4116033" lon="10.9906067"><ele>482.0</ele><time>2026-04-12T09:38:33.729Z</time></trkpt><trkpt lat="44.41148" lon="10.9906533"><ele>482.00000000000006</ele><time>2026-04-12T09:38:35.729Z</time></trkpt><trkpt lat="44.41141" lon="10.9907"><ele>482.00000000000006</ele><time>2026-04-12T09:38:36.729Z</time></trkpt><trkpt lat="44.411335" lon="10.9907433"><ele>482.0</ele><time>2026-04-12T09:38:37.73Z</time></trkpt><trkpt lat="44.4112567" lon="10.99078"><ele>482.0</ele><time>2026-04-12T09:38:38.73Z</time></trkpt><trkpt lat="44.4111733" lon="10.99081"><ele>482.3333333333333</ele><time>2026-04-12T09:38:39.729Z</time></trkpt><trkpt lat="44.4110883" lon="10.9908417"><ele>482.66666666666663</ele><time>2026-04-12T09:38:40.729Z</time></trkpt><trkpt lat="44.4110083" lon="10.990865"><ele>483.0</ele><time>2026-04-12T09:38:41.729Z</time></trkpt><trkpt lat="44.41094" lon="10.9908867"><ele>483.33333333333337</ele><time>2026-04-12T09:38:42.729Z</time></trkpt><trkpt lat="44.4108717" lon="10.99091"><ele>483.6666666666667</ele><time>2026-04-12T09:38:43.729Z</time></trkpt><trkpt lat="44.4107767" lon="10.9909233"><ele>484.0</ele><time>2026-04-12T09:38:45.731Z</time></trkpt><trkpt lat="44.4107017" lon="10.99088"><ele>484.00000000000006</ele><time>2026-04-12T09:38:48.729Z</time></trkpt><trkpt lat="44.4106733" lon="10.9909683"><ele>484.0</ele><time>2026-04-12T09:38:54.729Z</time></trkpt><trkpt lat="44.4106817" lon="10.9911067"><ele>484.0</ele><time>2026-04-12T09:38:56.729Z</time></trkpt><trkpt lat="44.41067" lon="10.9912"><ele>484.0</ele><time>2026-04-12T09:38:57.728Z</time></trkpt><trkpt lat="44.410645" lon="10.9913033"><ele>484.00000000000006</ele><time>2026-04-12T09:38:58.73Z</time></trkpt><trkpt lat="44.4106167" lon="10.9913933"><ele>484.0</ele><time>2026-04-12T09:38:59.729Z</time></trkpt><trkpt lat="44.4105767" lon="10.9914717"><ele>484.00000000000006</ele><time>2026-04-12T09:39:00.729Z</time></trkpt><trkpt lat="44.41052" lon="10.9915383"><ele>484.0</ele><time>2026-04-12T09:39:01.729Z</time></trkpt><trkpt lat="44.41046" lon="10.9916183"><ele>484.0</ele><time>2026-04-12T09:39:02.729Z</time></trkpt><trkpt lat="44.4103983" lon="10.9917033"><ele>484.0</ele><time>2026-04-12T09:39:03.729Z</time></trkpt><trkpt lat="44.410345" lon="10.991795"><ele>484.00000000000006</ele><time>2026-04-12T09:39:04.728Z</time></trkpt><trkpt lat="44.4102933" lon="10.99188"><ele>484.0</ele><time>2026-04-12T09:39:05.729Z</time></trkpt><trkpt lat="44.4102467" lon="10.9919533"><ele>486.1666666666667</ele><time>2026-04-12T09:39:06.729Z</time></trkpt><trkpt lat="44.4101567" lon="10.9920433"><ele>488.33333333333337</ele><time>2026-04-12T09:39:08.73Z</time></trkpt><trkpt lat="44.41009" lon="10.99209"><ele>490.5</ele><time>2026-04-12T09:39:10.73Z</time></trkpt><trkpt lat="44.4100383" lon="10.992165"><ele>492.66666666666663</ele><time>2026-04-12T09:39:13.729Z</time></trkpt><trkpt lat="44.410005" lon="10.9922583"><ele>494.8333333333333</ele><time>2026-04-12T09:39:15.728Z</time></trkpt><trkpt lat="44.4099817" lon="10.9923683"><ele>497.0</ele><time>2026-04-12T09:39:18.729Z</time></trkpt><trkpt lat="44.4099767" lon="10.9924583"><ele>496.16666666666663</ele><time>2026-04-12T09:39:21.729Z</time></trkpt><trkpt lat="44.4099133" lon="10.99253"><ele>495.3333333333333</ele><time>2026-04-12T09:39:24.729Z</time></trkpt><trkpt lat="44.4098483" lon="10.992585"><ele>494.5</ele><time>2026-04-12T09:39:26.729Z</time></trkpt><trkpt lat="44.409785" lon="10.9926817"><ele>493.66666666666663</ele><time>2026-04-12T09:39:56.73Z</time></trkpt><trkpt lat="44.4097467" lon="10.9927883"><ele>492.8333333333333</ele><time>2026-04-12T09:39:58.729Z</time></trkpt><trkpt lat="44.409695" lon="10.9929167"><ele>492.0</ele><time>2026-04-12T09:40:11.728Z</time></trkpt><trkpt lat="44.40962" lon="10.992915"><ele>492.0</ele><time>2026-04-12T09:40:28.728Z</time></trkpt><trkpt lat="44.4096867" lon="10.9928533"><ele>492.0</ele><time>2026-04-12T09:43:07.726Z</time></trkpt><trkpt lat="44.409735" lon="10.992795"><ele>492.0</ele><time>2026-04-12T09:43:23.729Z</time></trkpt><trkpt lat="44.4097817" lon="10.9927017"><ele>492.0</ele><time>2026-04-12T09:43:26.727Z</time></trkpt><trkpt lat="44.4098433" lon="10.9925833"><ele>492.0</ele><time>2026-04-12T09:43:43.727Z</time></trkpt><trkpt lat="44.409905" lon="10.9925417"><ele>492.0</ele><time>2026-04-12T09:43:46.728Z</time></trkpt><trkpt lat="44.4099533" lon="10.99248"><ele>497.0</ele><time>2026-04-12T09:43:50.727Z</time></trkpt></trkseg></trk></gpx>